Time;durP1;ratioP1;P1;durP2;ratioP2;P2;SDS_P1;SDS_P2;PMS_P1;PMS_P2;Temp;Humidity;BMP_temperature;BMP_pressure;BME280_temperature;BME280_humidity;BME280_pressure;Samples;Min_cycle;Max_cycle;Signal;HPM_P1;HPM_P2
2022/08/29 00:04:03;;;;;;;5.80;2.08;;;28.60;46.10;;;;;;20913554;28;20053;-58
2022/08/29 00:14:05;;;;;;;5.43;2.22;;;28.40;46.90;;;;;;20912432;28;20052;-57
2022/08/29 00:24:06;;;;;;;7.90;2.13;;;28.20;47.10;;;;;;20910911;28;20053;-57
2022/08/29 00:34:08;;;;;;;4.68;2.20;;;28.10;47.10;;;;;;20910731;28;20099;-57
2022/08/29 00:44:09;;;;;;;6.25;2.47;;;28.00;47.20;;;;;;20909813;28;20187;-57
2022/08/29 00:54:13;;;;;;;5.03;1.80;;;27.90;47.20;;;;;;20909558;28;20056;-58
2022/08/29 01:04:15;;;;;;;4.20;2.20;;;27.90;46.50;;;;;;20921280;28;20091;-58
2022/08/29 01:14:19;;;;;;;6.22;2.47;;;27.80;46.30;;;;;;20925136;28;20087;-57
2022/08/29 01:24:49;;;;;;;4.80;1.95;;;27.70;46.60;;;;;;20922804;28;20051;-59
2022/08/29 01:34:52;;;;;;;4.82;2.40;;;27.60;46.60;;;;;;20921989;28;20110;-58
2022/08/29 01:44:59;;;;;;;3.38;2.00;;;27.60;46.80;;;;;;20921729;28;20131;-56
2022/08/29 01:55:02;;;;;;;5.07;2.65;;;27.60;46.90;;;;;;20920627;28;20076;-59
2022/08/29 02:05:05;;;;;;;3.45;1.90;;;27.50;47.10;;;;;;20920653;28;20501;-57
2022/08/29 02:15:07;;;;;;;4.38;2.00;;;27.40;47.20;;;;;;20918877;28;20049;-57
2022/08/29 02:35:31;;;;;;;4.60;2.00;;;27.30;49.10;;;;;;20918469;28;20071;-57
2022/08/29 02:45:39;;;;;;;5.10;3.03;;;27.20;49.80;;;;;;20915333;28;20106;-57
2022/08/29 02:55:40;;;;;;;5.10;2.50;;;27.10;50.20;;;;;;20915954;28;20053;-56
2022/08/29 03:05:41;;;;;;;;;;;27.00;50.60;;;;;;20915614;28;20433;-55
2022/08/29 03:15:43;;;;;;;4.43;2.00;;;27.00;50.40;;;;;;20914733;28;19927;-58
2022/08/29 03:25:45;;;;;;;11.23;2.83;;;26.90;51.40;;;;;;20912450;28;20045;-56
2022/08/29 03:35:47;;;;;;;5.05;2.47;;;26.90;51.60;;;;;;20912825;28;20057;-57
2022/08/29 03:45:49;;;;;;;6.05;2.72;;;26.90;51.50;;;;;;20912341;28;20175;-57
2022/08/29 03:55:53;;;;;;;5.32;2.50;;;26.80;51.60;;;;;;20911622;28;20057;-58
2022/08/29 04:05:54;;;;;;;5.82;2.97;;;26.80;51.60;;;;;;20911553;28;20049;-57
2022/08/29 04:15:56;;;;;;;5.20;2.60;;;26.80;51.40;;;;;;20912225;28;20052;-58
2022/08/29 04:25:58;;;;;;;6.22;2.83;;;26.90;51.40;;;;;;20911837;28;20052;-57
2022/08/29 04:36:00;;;;;;;7.22;2.63;;;26.80;51.60;;;;;;20918799;28;20098;-58
2022/08/29 04:46:02;;;;;;;6.97;2.55;;;26.80;51.70;;;;;;20926983;28;20049;-57
2022/08/29 04:56:07;;;;;;;10.52;2.95;;;26.60;50.00;;;;;;20926673;28;20488;-57
2022/08/29 05:06:10;;;;;;;9.15;2.85;;;26.30;51.30;;;;;;20926708;28;20413;-58
2022/08/29 05:16:14;;;;;;;8.15;2.83;;;26.20;50.40;;;;;;20924441;28;20417;-57
2022/08/29 05:26:15;;;;;;;6.13;2.40;;;26.20;50.70;;;;;;20924113;28;20190;-56
2022/08/29 05:36:17;;;;;;;5.78;2.40;;;26.10;50.80;;;;;;20923438;28;20493;-55
2022/08/29 05:46:19;;;;;;;7.82;2.65;;;26.10;50.90;;;;;;20920904;28;20138;-56
2022/08/29 05:56:25;;;;;;;8.45;2.88;;;26.10;50.60;;;;;;20921099;28;20048;-57
2022/08/29 06:06:28;;;;;;;8.35;2.22;;;26.10;50.30;;;;;;20920368;28;20048;-57
2022/08/29 06:16:31;;;;;;;9.23;2.53;;;26.10;50.10;;;;;;20919130;28;20049;-57
2022/08/29 06:26:33;;;;;;;7.32;3.03;;;26.10;53.20;;;;;;20918647;28;20126;-58
2022/08/29 06:36:35;;;;;;;8.93;3.35;;;25.90;53.50;;;;;;20917932;28;20056;-57
2022/08/29 06:46:39;;;;;;;8.93;2.83;;;25.50;54.50;;;;;;20916741;28;20056;-58
2022/08/29 06:56:40;;;;;;;13.18;3.38;;;25.40;54.50;;;;;;20915697;28;20111;-57
2022/08/29 07:06:43;;;;;;;9.30;2.75;;;25.60;55.00;;;;;;20915116;28;20041;-59
2022/08/29 07:16:44;;;;;;;9.93;4.40;;;25.90;53.20;;;;;;20914323;28;20056;-58
2022/08/29 07:26:45;;;;;;;12.83;4.33;;;26.10;53.60;;;;;;20914016;28;20084;-59
2022/08/29 07:36:47;;;;;;;8.45;4.30;;;26.10;55.80;;;;;;20912773;28;20045;-56
2022/08/29 07:46:57;;;;;;;14.02;4.30;;;26.10;58.90;;;;;;20912326;28;20510;-56
2022/08/29 07:56:59;;;;;;;12.73;4.28;;;26.10;57.30;;;;;;20911313;28;20045;-59
2022/08/29 08:07:01;;;;;;;10.48;4.45;;;26.40;57.70;;;;;;20910811;28;20041;-59
2022/08/29 08:17:03;;;;;;;6.75;2.80;;;26.40;58.10;;;;;;20911164;28;20103;-59
2022/08/29 08:27:04;;;;;;;9.80;3.53;;;26.60;51.40;;;;;;20910475;28;20461;-59
2022/08/29 08:37:09;;;;;;;8.40;2.50;;;26.70;50.80;;;;;;20910098;28;20056;-58
2022/08/29 08:47:11;;;;;;;7.20;2.85;;;27.20;49.70;;;;;;20909777;28;20059;-58
2022/08/29 08:57:13;;;;;;;6.70;3.25;;;27.40;49.50;;;;;;20909720;28;20045;-59
2022/08/29 09:07:21;;;;;;;10.85;3.08;;;27.60;48.50;;;;;;20908521;28;20049;-60
2022/08/29 09:17:59;;;;;;;10.20;2.88;;;28.10;46.70;;;;;;20908230;28;20060;-60
2022/08/29 09:28:05;;;;;;;6.75;2.70;;;28.20;46.50;;;;;;20921111;28;20053;-58
2022/08/29 09:38:18;;;;;;;6.25;2.40;;;28.40;45.90;;;;;;20922800;28;20136;-58
2022/08/29 09:48:20;;;;;;;6.82;2.60;;;28.60;45.00;;;;;;20921734;28;20460;-59
2022/08/29 09:58:23;;;;;;;8.52;3.10;;;28.70;44.90;;;;;;20921808;28;20505;-56
2022/08/29 10:08:33;;;;;;;7.38;2.80;;;29.10;43.90;;;;;;20920375;28;20140;-61
2022/08/29 10:19:04;;;;;;;7.10;2.80;;;29.30;43.30;;;;;;20919781;28;20053;-59
2022/08/29 10:29:15;;;;;;;8.73;3.10;;;29.50;42.80;;;;;;20915014;28;20405;-58
2022/08/29 10:39:31;;;;;;;11.80;3.37;;;29.60;42.50;;;;;;20917133;28;20561;-58
2022/08/29 10:49:38;;;;;;;5.13;2.50;;;29.80;42.10;;;;;;20916560;28;20353;-57
2022/08/29 11:00:06;;;;;;;11.40;3.13;;;30.10;41.40;;;;;;20916685;28;20106;-58
2022/08/29 11:10:21;;;;;;;11.20;3.78;;;30.10;41.40;;;;;;20913866;28;20041;-58
2022/08/29 11:20:29;;;;;;;15.45;3.35;;;30.60;39.90;;;;;;20914768;28;20056;-57
2022/08/29 11:31:01;;;;;;;13.07;3.63;;;30.90;38.90;;;;;;20913548;28;20044;-59
2022/08/29 11:41:13;;;;;;;11.85;3.33;;;31.10;37.90;;;;;;20912577;28;20057;-58
2022/08/29 11:51:39;;;;;;;18.08;3.63;;;31.50;37.10;;;;;;20911277;28;20133;-60
2022/08/29 12:01:40;;;;;;;11.43;3.78;;;31.70;36.10;;;;;;20911264;28;20059;-59
2022/08/29 12:12:01;;;;;;;11.55;3.38;;;31.80;35.70;;;;;;20910844;28;20083;-60
2022/08/29 12:22:03;;;;;;;10.98;3.22;;;32.20;33.90;;;;;;20911260;28;20049;-61
2022/08/29 12:32:13;;;;;;;10.57;3.33;;;32.30;34.40;;;;;;20910620;28;20052;-58
2022/08/29 12:42:57;;;;;;;10.40;4.03;;;32.50;33.80;;;;;;20908589;28;20130;-58
2022/08/29 12:53:05;;;;;;;14.68;4.55;;;32.80;32.70;;;;;;20907610;28;20045;-57
2022/08/29 13:03:09;;;;;;;14.30;3.90;;;32.90;32.60;;;;;;20924338;28;20045;-57
2022/08/29 13:13:13;;;;;;;16.05;6.35;;;32.90;32.50;;;;;;20923886;28;20053;-58
2022/08/29 13:23:28;;;;;;;19.20;6.65;;;32.90;33.00;;;;;;20924737;28;20535;-58
2022/08/29 13:33:31;;;;;;;10.45;4.00;;;33.00;33.40;;;;;;20920829;28;20119;-57
2022/08/29 13:43:40;;;;;;;13.55;3.85;;;33.10;32.80;;;;;;20921713;28;20064;-59
2022/08/29 13:53:42;;;;;;;16.02;4.53;;;33.10;33.20;;;;;;20921669;28;20085;-60
2022/08/29 14:03:43;;;;;;;11.55;4.00;;;33.10;33.30;;;;;;20919597;28;20162;-59
2022/08/29 14:13:48;;;;;;;9.75;4.13;;;33.20;33.30;;;;;;20917266;28;20059;-58
2022/08/29 14:23:51;;;;;;;20.75;4.82;;;33.10;33.50;;;;;;20918892;28;20068;-59
2022/08/29 14:33:53;;;;;;;16.13;4.88;;;33.10;33.50;;;;;;20917914;28;20121;-58
2022/08/29 14:43:55;;;;;;;12.80;4.18;;;33.20;33.60;;;;;;20917339;28;20052;-59
2022/08/29 14:53:57;;;;;;;16.23;4.05;;;33.10;33.60;;;;;;20915742;28;20053;-58
2022/08/29 15:03:59;;;;;;;18.58;5.10;;;33.40;32.50;;;;;;20916155;28;20575;-58
2022/08/29 15:14:00;;;;;;;12.18;3.97;;;33.60;31.50;;;;;;20914673;28;20442;-58
2022/08/29 15:24:04;;;;;;;9.38;3.78;;;33.50;31.80;;;;;;20914344;28;20060;-59
2022/08/29 15:34:05;;;;;;;13.13;4.47;;;33.60;31.60;;;;;;20913715;28;20512;-59
2022/08/29 15:44:07;;;;;;;14.68;4.15;;;33.60;32.10;;;;;;20913000;28;20412;-58
2022/08/29 15:54:09;;;;;;;11.15;4.75;;;33.70;31.70;;;;;;20912768;28;20049;-58
2022/08/29 16:04:12;;;;;;;18.83;4.15;;;33.60;31.50;;;;;;20912540;28;20067;-58
2022/08/29 16:14:15;;;;;;;13.65;3.75;;;33.50;32.30;;;;;;20911060;28;20060;-57
2022/08/29 16:24:17;;;;;;;9.70;4.50;;;33.30;33.40;;;;;;20912265;28;20053;-58
2022/08/29 16:34:19;;;;;;;15.80;4.60;;;33.10;33.20;;;;;;20921639;28;20056;-59
2022/08/29 16:44:22;;;;;;;15.52;5.70;;;33.10;33.80;;;;;;20927266;28;20053;-58
2022/08/29 16:54:24;;;;;;;16.98;4.82;;;33.10;33.30;;;;;;20925517;28;20194;-57
2022/08/29 17:04:27;;;;;;;11.02;4.63;;;32.60;33.50;;;;;;20926363;28;20048;-59
2022/08/29 17:24:33;;;;;;;12.90;3.92;;;32.50;34.20;;;;;;20923699;28;20409;-59
2022/08/29 17:34:37;;;;;;;10.75;4.03;;;32.30;33.40;;;;;;20924019;28;20056;-57
2022/08/29 17:44:39;;;;;;;12.80;3.78;;;32.00;33.60;;;;;;20920612;28;20051;-58
2022/08/29 17:54:41;;;;;;;12.18;4.00;;;32.00;33.60;;;;;;20921621;28;20053;-58
2022/08/29 18:04:42;;;;;;;11.38;3.50;;;31.80;34.30;;;;;;20921076;28;20053;-59
2022/08/29 18:14:44;;;;;;;10.45;4.82;;;31.70;34.20;;;;;;20920860;28;20378;-61
2022/08/29 18:24:46;;;;;;;10.27;3.45;;;31.60;34.00;;;;;;20919603;28;20067;-59
2022/08/29 18:34:48;;;;;;;8.13;3.60;;;31.40;34.50;;;;;;20918829;28;20131;-62
2022/08/29 18:44:50;;;;;;;10.38;6.88;;;31.20;34.00;;;;;;20917265;28;20053;-60
2022/08/29 18:54:52;;;;;;;10.57;3.58;;;31.10;34.00;;;;;;20916753;28;20083;-60
2022/08/29 19:04:54;;;;;;;12.23;3.60;;;30.90;34.00;;;;;;20917414;28;20505;-57
2022/08/29 19:14:55;;;;;;;11.38;4.13;;;30.70;34.00;;;;;;20914554;28;20052;-58
2022/08/29 19:24:57;;;;;;;15.85;5.35;;;30.70;34.20;;;;;;20913090;28;20057;-59
2022/08/29 19:35:00;;;;;;;10.20;3.80;;;30.50;34.20;;;;;;20914132;28;20059;-57
2022/08/29 19:45:02;;;;;;;12.70;4.18;;;30.60;34.30;;;;;;20912599;28;20493;-58
2022/08/29 19:55:07;;;;;;;11.55;4.18;;;30.50;34.20;;;;;;20911641;28;20163;-58
2022/08/29 20:05:14;;;;;;;7.60;3.90;;;30.40;34.10;;;;;;20911953;28;20053;-59
2022/08/29 20:15:16;;;;;;;12.05;4.43;;;30.20;34.40;;;;;;20911051;28;20131;-56
2022/08/29 20:25:18;;;;;;;13.20;4.13;;;30.10;34.40;;;;;;20910281;28;20049;-60
2022/08/29 20:45:58;;;;;;;26.38;10.23;;;29.90;34.60;;;;;;20818586;28;20067;-59
2022/08/29 20:56:00;;;;;;;9.80;4.25;;;29.80;34.60;;;;;;20818186;28;20051;-57
2022/08/29 21:06:02;;;;;;;7.95;4.20;;;29.70;35.00;;;;;;20817759;28;20486;-58
2022/08/29 21:16:06;;;;;;;11.98;4.43;;;29.60;34.70;;;;;;20866678;28;20084;-57
2022/08/29 21:26:08;;;;;;;10.45;4.10;;;29.50;34.90;;;;;;20923634;28;20060;-58
2022/08/29 21:36:12;;;;;;;8.40;4.35;;;29.40;34.30;;;;;;20923677;28;20057;-58
2022/08/29 21:46:17;;;;;;;10.20;4.20;;;29.30;34.90;;;;;;20922057;28;20051;-58
2022/08/29 21:56:19;;;;;;;8.70;4.32;;;29.10;36.10;;;;;;20922283;28;20179;-59
2022/08/29 22:06:21;;;;;;;11.30;6.22;;;28.80;36.00;;;;;;20920230;28;20056;-57
2022/08/29 22:16:28;;;;;;;8.25;4.53;;;28.70;35.80;;;;;;20920195;28;20057;-57
2022/08/29 22:26:30;;;;;;;14.85;7.32;;;28.60;36.30;;;;;;20917680;28;20052;-57
2022/08/29 22:36:32;;;;;;;9.40;4.35;;;28.50;36.80;;;;;;20917265;28;20056;-58
2022/08/29 22:46:34;;;;;;;11.20;5.07;;;28.40;36.50;;;;;;20917653;28;20049;-57
2022/08/29 22:56:39;;;;;;;11.63;4.68;;;28.30;36.40;;;;;;20916528;28;20049;-59
2022/08/29 23:06:41;;;;;;;10.45;4.45;;;28.30;36.30;;;;;;20915689;28;20048;-59
2022/08/29 23:16:43;;;;;;;7.75;4.10;;;28.10;36.40;;;;;;20915812;28;20538;-60
2022/08/29 23:26:44;;;;;;;15.40;7.50;;;28.20;36.30;;;;;;20913854;28;20059;-60
2022/08/29 23:36:46;;;;;;;12.07;6.88;;;28.20;36.20;;;;;;20913290;28;20428;-60
2022/08/29 23:46:47;;;;;;;11.75;5.47;;;28.10;36.40;;;;;;20910757;28;20060;-63
2022/08/29 23:56:49;;;;;;;13.98;7.65;;;28.10;36.60;;;;;;20912918;28;20512;-62
